Time;durP1;ratioP1;P1;durP2;ratioP2;P2;SDS_P1;SDS_P2;PMS_P1;PMS_P2;Temp;Humidity;BMP_temperature;BMP_pressure;BME280_temperature;BME280_humidity;BME280_pressure;Samples;Min_cycle;Max_cycle;Signal;HPM_P1;HPM_P2
2022/01/20 00:09:23;;;;;;;;;;;-2.30;94.30;;;;;;5016867;28;19911;-79
2022/01/20 00:28:17;;;;;;;;;;;-3.20;93.60;;;;;;5020479;28;19905;-78
2022/01/20 00:38:15;;;;;;;;;;;-3.40;94.00;;;;;;5040011;28;20271;-78
2022/01/20 00:40:41;;;;;;;;;;;-3.50;93.80;;;;;;5040380;28;20237;-78
2022/01/20 00:43:06;;;;;;;;;;;-3.50;94.10;;;;;;5065848;28;19985;-79
2022/01/20 00:45:32;;;;;;;;;;;-3.50;94.20;;;;;;5084337;28;19919;-79
2022/01/20 00:47:57;;;;;;;;;;;-3.60;94.30;;;;;;5070532;28;20352;-78
2022/01/20 00:50:24;;;;;;;;;;;-3.50;94.30;;;;;;5091836;28;20003;-79
2022/01/20 00:52:50;;;;;;;;;;;-3.60;94.20;;;;;;5092107;28;19923;-79
2022/01/20 00:55:30;;;;;;;;;;;-3.50;94.50;;;;;;5090856;28;19904;-79
2022/01/20 00:57:56;;;;;;;;;;;-3.50;94.50;;;;;;5086345;28;20033;-79
2022/01/20 01:00:21;;;;;;;;;;;-3.40;94.40;;;;;;5085398;28;20096;-78
2022/01/20 01:02:47;;;;;;;;;;;-3.50;94.10;;;;;;5084092;28;19957;-79
2022/01/20 01:08:25;;;;;;;;;;;;;;;;;;;;;
2022/01/20 01:10:51;;;;;;;;;;;-1.70;94.70;;;;;;4998961;28;19917;-78
2022/01/20 01:13:17;;;;;;;;;;;-3.50;94.50;;;;;;4998775;28;19923;-79
2022/01/20 01:15:47;;;;;;;;;;;-3.60;94.10;;;;;;4998325;28;19940;-78
2022/01/20 01:23:46;;;;;;;;;;;-3.80;94.60;;;;;;4997866;28;20398;-79
2022/01/20 01:26:13;;;;;;;;;;;-3.80;94.90;;;;;;4998856;28;19976;-79
2022/01/20 01:28:39;;;;;;;;;;;-3.80;94.60;;;;;;4999519;28;20008;-78
2022/01/20 01:33:54;;;;;;;;;;;-3.70;94.70;;;;;;4999622;28;19964;-78
2022/01/20 01:36:23;;;;;;;;;;;-3.80;94.60;;;;;;4999471;28;19905;-78
2022/01/20 01:38:50;;;;;;;;;;;-3.90;94.70;;;;;;5005727;28;20574;-78
2022/01/20 01:41:25;;;;;;;;;;;-4.00;94.80;;;;;;5012524;28;19924;-79
2022/01/20 01:43:52;;;;;;;;;;;-2.30;95.20;;;;;;5003044;28;19975;-79
2022/01/20 01:46:18;;;;;;;;;;;-4.20;94.80;;;;;;5062354;28;19966;-78
2022/01/20 01:48:44;;;;;;;;;;;-2.70;95.10;;;;;;5063218;28;19913;-78
2022/01/20 01:51:12;;;;;;;;;;;-2.60;95.30;;;;;;5063730;28;19908;-78
2022/01/20 01:53:39;;;;;;;;;;;-4.50;94.50;;;;;;5066799;28;19920;-78
2022/01/20 01:56:05;;;;;;;;;;;-5.30;94.20;;;;;;5067775;28;20129;-78
2022/01/20 01:58:53;;;;;;;;;;;-3.90;94.30;;;;;;5067439;28;20082;-78
2022/01/20 02:04:21;;;;;;;;;;;-4.10;94.80;;;;;;5063440;28;19904;-79
2022/01/20 02:18:10;;;;;;;;;;;-4.00;94.50;;;;;;5080636;28;19918;-78
2022/01/20 02:20:36;;;;;;;;;;;-3.90;94.60;;;;;;5062632;28;19990;-78
2022/01/20 02:23:01;;;;;;;;;;;-4.10;94.30;;;;;;5061504;28;20528;-78
2022/01/20 02:25:30;;;;;;;;;;;-3.10;94.70;;;;;;5080491;28;19922;-78
2022/01/20 02:27:56;;;;;;;;;;;-2.90;94.80;;;;;;5080665;28;19904;-79
2022/01/20 02:30:24;;;;;;;;;;;-4.00;94.30;;;;;;5080514;28;20188;-78
2022/01/20 02:32:54;;;;;;;;;;;-4.10;94.40;;;;;;5080410;28;19965;-79
2022/01/20 02:35:20;;;;;;;;;;;-4.20;94.50;;;;;;5080762;28;20351;-78
2022/01/20 02:37:54;;;;;;;;;;;-4.10;94.70;;;;;;5080320;28;19998;-78
2022/01/20 02:45:48;;;;;;;;;;;-3.40;95.10;;;;;;5079931;28;19937;-78
2022/01/20 02:48:14;;;;;;;;;;;-4.00;94.60;;;;;;5080710;28;20441;-78
2022/01/20 02:50:39;;;;;;;;;;;-4.00;94.20;;;;;;5079909;28;19904;-78
2022/01/20 02:53:05;;;;;;;;;;;-4.00;94.10;;;;;;5079414;28;20408;-79
2022/01/20 02:55:31;;;;;;;;;;;-3.90;93.90;;;;;;5079240;28;19915;-78
2022/01/20 02:57:59;;;;;;;;;;;-4.10;94.20;;;;;;5079561;28;20325;-78
2022/01/20 03:03:22;;;;;;;;;;;-4.20;94.30;;;;;;5016384;28;20014;-79
2022/01/20 03:05:51;;;;;;;;;;;-4.90;94.60;;;;;;5016624;28;20133;-78
2022/01/20 03:08:20;;;;;;;;;;;-3.00;94.90;;;;;;5016401;28;20304;-78
2022/01/20 03:10:46;;;;;;;;;;;-7.00;94.80;;;;;;5016309;28;20468;-79
2022/01/20 03:13:12;;;;;;;;;;;-4.30;94.70;;;;;;5016446;28;19913;-78
2022/01/20 03:15:38;;;;;;;;;;;-4.30;94.80;;;;;;5016537;28;20185;-79
2022/01/20 03:18:04;;;;;;;;;;;-4.20;95.00;;;;;;5016702;28;19909;-79
2022/01/20 03:20:32;;;;;;;;;;;-4.20;94.80;;;;;;5016389;28;20000;-79
2022/01/20 03:22:58;;;;;;;;;;;-4.20;94.80;;;;;;5000106;28;20399;-78
2022/01/20 03:25:24;;;;;;;;;;;-4.20;94.90;;;;;;5016623;28;20149;-79
2022/01/20 03:27:49;;;;;;;;;;;-2.70;95.10;;;;;;5016799;28;20230;-79
2022/01/20 03:30:15;;;;;;;;;;;-3.30;95.10;;;;;;5018969;28;20391;-78
2022/01/20 03:32:41;;;;;;;;;;;-4.20;94.70;;;;;;5035547;28;20004;-78
2022/01/20 03:35:07;;;;;;;;;;;-3.40;94.80;;;;;;5034531;28;20174;-79
2022/01/20 03:37:33;;;;;;;;;;;-2.30;95.00;;;;;;5008114;28;19909;-79
2022/01/20 03:39:58;;;;;;;;;;;-4.20;94.70;;;;;;5039120;28;19931;-79
2022/01/20 03:42:24;;;;;;;;;;;-4.10;94.70;;;;;;5081343;28;20379;-78
2022/01/20 03:44:52;;;;;;;;;;;-4.20;94.60;;;;;;5081149;28;19930;-79
2022/01/20 03:47:18;;;;;;;;;;;-4.20;94.70;;;;;;5073852;28;19942;-78
2022/01/20 03:52:24;;;;;;;;;;;-2.70;94.80;;;;;;5085170;28;20563;-78
2022/01/20 03:54:50;;;;;;;;;;;-3.70;94.40;;;;;;5066138;28;20175;-79
2022/01/20 03:57:16;;;;;;;;;;;-3.40;94.70;;;;;;5065506;28;19915;-79
2022/01/20 03:59:41;;;;;;;;;;;-4.30;94.70;;;;;;5065805;28;19971;-79
2022/01/20 04:02:07;;;;;;;;;;;-4.00;94.60;;;;;;5064857;28;19904;-79
2022/01/20 04:04:33;;;;;;;;;;;-4.20;94.50;;;;;;5083952;28;20367;-79
2022/01/20 04:06:58;;;;;;;;;;;-3.10;94.80;;;;;;5083277;28;19962;-78
2022/01/20 04:09:24;;;;;;;;;;;-4.30;94.90;;;;;;5083440;28;19904;-79
2022/01/20 04:12:08;;;;;;;;;;;-2.20;95.40;;;;;;5064147;28;20379;-79
2022/01/20 04:14:35;;;;;;;;;;;-4.20;94.80;;;;;;5083826;28;20387;-78
2022/01/20 04:17:03;;;;;;;;;;;-4.20;94.70;;;;;;5065200;28;20056;-79
2022/01/20 04:19:32;;;;;;;;;;;-2.40;95.10;;;;;;5083848;28;20120;-79
2022/01/20 04:21:58;;;;;;;;;;;-4.20;94.50;;;;;;5083948;28;19929;-78
2022/01/20 04:24:24;;;;;;;;;;;-4.20;94.60;;;;;;5083588;28;19908;-79
2022/01/20 04:26:49;;;;;;;;;;;-4.20;94.80;;;;;;5083453;28;19911;-78
2022/01/20 04:29:16;;;;;;;;;;;-4.10;94.80;;;;;;5083399;28;19908;-79
2022/01/20 04:31:42;;;;;;;;;;;-4.30;95.00;;;;;;5065412;28;20124;-78
2022/01/20 04:34:08;;;;;;;;;;;-4.00;95.20;;;;;;5084057;28;19916;-78
2022/01/20 04:36:37;;;;;;;;;;;-3.20;95.50;;;;;;5066071;28;20239;-79
2022/01/20 04:39:04;;;;;;;;;;;-4.10;95.10;;;;;;5092254;28;20325;-79
2022/01/20 04:41:35;;;;;;;;;;;-4.20;95.20;;;;;;5092808;28;19922;-79
2022/01/20 04:44:02;;;;;;;;;;;-4.20;95.30;;;;;;5073367;28;19904;-79
2022/01/20 04:57:39;;;;;;;;;;;-4.30;95.50;;;;;;5001346;28;20043;-77
2022/01/20 05:00:14;;;;;;;;;;;-4.30;95.50;;;;;;5002891;28;19911;-79
2022/01/20 05:06:52;;;;;;;;;;;-4.00;95.70;;;;;;4928626;29;20225;-78
2022/01/20 05:09:19;;;;;;;;;;;-3.80;95.80;;;;;;4891700;29;19907;-79
2022/01/20 05:11:56;;;;;;;;;;;-1.40;96.90;;;;;;4890792;29;20032;-79
2022/01/20 05:14:22;;;;;;;;;;;-4.60;95.80;;;;;;4889072;29;19926;-79
2022/01/20 05:16:55;;;;;;;;;;;-4.30;96.10;;;;;;4886583;29;19911;-79
2022/01/20 05:19:46;;;;;;;;;;;-4.40;96.30;;;;;;4885100;29;19907;-78
2022/01/20 05:22:12;;;;;;;;;;;-6.90;95.50;;;;;;4883369;29;19911;-79
2022/01/20 05:24:38;;;;;;;;;;;-3.50;96.60;;;;;;4883493;29;19915;-78
2022/01/20 05:27:03;;;;;;;;;;;-2.20;96.70;;;;;;4882962;29;20114;-79
2022/01/20 05:29:29;;;;;;;;;;;-4.20;96.10;;;;;;4930120;28;20015;-79
2022/01/20 05:31:54;;;;;;;;;;;-2.80;96.50;;;;;;4940327;28;19907;-78
2022/01/20 05:34:20;;;;;;;;;;;-4.20;96.50;;;;;;4953685;28;20423;-79
2022/01/20 05:36:48;;;;;;;;;;;-4.10;96.60;;;;;;4959765;28;20373;-79
2022/01/20 05:39:14;;;;;;;;;;;-4.10;96.30;;;;;;4967991;28;19906;-79
2022/01/20 05:41:40;;;;;;;;;;;-4.00;96.50;;;;;;4998548;28;20104;-79
2022/01/20 05:44:11;;;;;;;;;;;-3.10;96.80;;;;;;5070260;28;20278;-79
2022/01/20 05:46:48;;;;;;;;;;;-4.00;96.70;;;;;;5064331;28;19915;-79
2022/01/20 05:49:41;;;;;;;;;;;-4.00;96.40;;;;;;5037897;28;19912;-79
2022/01/20 05:54:53;;;;;;;;;;;-3.70;96.90;;;;;;5041510;28;20035;-79
2022/01/20 05:57:19;;;;;;;;;;;-3.60;96.30;;;;;;5054319;28;19936;-79
2022/01/20 05:59:48;;;;;;;;;;;-4.00;96.20;;;;;;5041650;28;19924;-78
2022/01/20 06:02:28;;;;;;;;;;;-2.50;96.40;;;;;;5040515;28;20011;-79
2022/01/20 06:04:54;;;;;;;;;;;-3.30;95.90;;;;;;5038505;28;19955;-78
2022/01/20 06:07:22;;;;;;;;;;;-3.90;95.60;;;;;;5037527;28;19944;-78
2022/01/20 06:09:48;;;;;;;;;;;-3.90;95.50;;;;;;5020729;28;19999;-79
2022/01/20 06:12:13;;;;;;;;;;;-3.90;95.60;;;;;;5037940;28;20206;-79
2022/01/20 06:14:39;;;;;;;;;;;-1.00;96.60;;;;;;5046076;28;19940;-78
2022/01/20 06:17:04;;;;;;;;;;;-4.00;95.90;;;;;;5052108;28;20570;-78
2022/01/20 06:19:32;;;;;;;;;;;-3.90;95.90;;;;;;5049653;28;19920;-79
2022/01/20 06:21:58;;;;;;;;;;;-2.40;96.60;;;;;;5048054;28;19909;-80
2022/01/20 06:24:29;;;;;;;;;;;-4.00;96.20;;;;;;5042566;28;20046;-79
2022/01/20 06:26:55;;;;;;;;;;;-4.00;96.30;;;;;;5042179;28;20375;-79
2022/01/20 06:29:20;;;;;;;;;;;-4.00;96.20;;;;;;5042075;28;19916;-79
2022/01/20 06:31:46;;;;;;;;;;;-3.10;96.10;;;;;;5056167;28;20033;-79
2022/01/20 06:34:11;;;;;;;;;;;-3.90;96.00;;;;;;5055845;28;19923;-79
2022/01/20 06:36:37;;;;;;;;;;;-4.00;95.80;;;;;;5040571;28;20295;-79
2022/01/20 06:39:03;;;;;;;;;;;-4.00;96.20;;;;;;5040633;28;20007;-79
2022/01/20 06:41:33;;;;;;;;;;;-4.00;96.40;;;;;;5056391;28;20348;-78
2022/01/20 06:43:59;;;;;;;;;;;-3.90;96.50;;;;;;5055608;28;19905;-79
2022/01/20 06:46:24;;;;;;;;;;;-3.90;96.60;;;;;;5040432;28;19950;-78
2022/01/20 06:48:50;;;;;;;;;;;-3.30;96.70;;;;;;5040955;28;20421;-79
2022/01/20 06:51:16;;;;;;;;;;;-3.80;96.80;;;;;;5055195;28;19904;-79
2022/01/20 06:53:41;;;;;;;;;;;-3.80;97.20;;;;;;5055796;28;20509;-79
2022/01/20 06:56:07;;;;;;;;;;;-1.20;97.60;;;;;;5040654;28;20203;-79
2022/01/20 06:58:32;;;;;;;;;;;-3.60;97.00;;;;;;5040681;28;20205;-79
2022/01/20 07:00:58;;;;;;;;;;;-3.60;96.70;;;;;;5040347;28;20422;-79
2022/01/20 07:03:24;;;;;;;;;;;-3.50;96.80;;;;;;5040204;28;20378;-78
2022/01/20 07:05:49;;;;;;;;;;;-3.50;96.60;;;;;;5040245;28;19905;-79
2022/01/20 07:08:16;;;;;;;;;;;-1.10;96.90;;;;;;5039946;28;19904;-79
2022/01/20 07:10:42;;;;;;;;;;;-3.40;96.20;;;;;;5059871;28;20132;-78
2022/01/20 07:13:07;;;;;;;;;;;-3.30;96.00;;;;;;5079513;28;19915;-78
2022/01/20 07:15:59;;;;;;;;;;;-2.60;96.00;;;;;;5080459;28;20019;-79
2022/01/20 07:18:27;;;;;;;;;;;-3.60;95.80;;;;;;5019827;28;19905;-79
2022/01/20 07:20:53;;;;;;;;;;;-3.00;96.00;;;;;;5039106;28;19920;-79
2022/01/20 07:23:19;;;;;;;;;;;-2.90;95.70;;;;;;5040710;28;19905;-78
2022/01/20 07:25:44;;;;;;;;;;;-2.70;95.50;;;;;;5023647;28;19904;-78
2022/01/20 07:28:10;;;;;;;;;;;-2.70;95.60;;;;;;5040837;28;20216;-78
2022/01/20 07:30:36;;;;;;;;;;;-2.60;95.70;;;;;;5040776;28;19917;-78
2022/01/20 07:33:03;;;;;;;;;;;-2.60;95.70;;;;;;5040526;28;20453;-79
2022/01/20 07:35:29;;;;;;;;;;;-2.70;95.40;;;;;;5040562;28;19959;-79
2022/01/20 07:37:55;;;;;;;;;;;-1.60;95.30;;;;;;5040180;28;20056;-78
2022/01/20 07:40:20;;;;;;;;;;;-2.20;95.10;;;;;;5039906;28;19943;-79
2022/01/20 07:42:49;;;;;;;;;;;-2.10;94.80;;;;;;5040192;28;20378;-79
2022/01/20 07:45:14;;;;;;;;;;;-1.90;94.90;;;;;;5039981;28;20196;-78
2022/01/20 07:47:40;;;;;;;;;;;-0.30;95.10;;;;;;5040314;28;20577;-79
2022/01/20 07:50:07;;;;;;;;;;;-1.50;94.70;;;;;;5040007;28;19904;-79
2022/01/20 07:52:35;;;;;;;;;;;-1.30;94.60;;;;;;5040287;28;19948;-78
2022/01/20 07:55:03;;;;;;;;;;;-1.20;94.40;;;;;;5057512;28;19912;-79
2022/01/20 07:57:32;;;;;;;;;;;-0.90;94.60;;;;;;5064106;28;20024;-79
2022/01/20 08:00:21;;;;;;;;;;;1.50;94.30;;;;;;5065326;28;20475;-78
2022/01/20 08:02:47;;;;;;;;;;;-0.90;93.40;;;;;;5085982;28;19975;-79
2022/01/20 08:05:13;;;;;;;;;;;-1.20;93.00;;;;;;5076457;28;19933;-79
2022/01/20 08:07:41;;;;;;;;;;;-0.20;93.50;;;;;;5071185;28;19904;-79
2022/01/20 08:10:07;;;;;;;;;;;-1.50;93.20;;;;;;5066598;28;20333;-79
2022/01/20 08:12:37;;;;;;;;;;;0.30;93.00;;;;;;5066177;28;19911;-79
2022/01/20 08:15:03;;;;;;;;;;;-0.20;93.00;;;;;;5065802;28;19911;-79
2022/01/20 08:17:29;;;;;;;;;;;0.30;92.60;;;;;;5065168;28;20040;-79
2022/01/20 08:19:54;;;;;;;;;;;-0.70;92.10;;;;;;5082835;28;20023;-79
2022/01/20 08:22:20;;;;;;;;;;;0.80;92.50;;;;;;5063434;28;19904;-79
2022/01/20 08:24:51;;;;;;;;;;;0.40;91.60;;;;;;5082755;28;20238;-77
2022/01/20 08:27:18;;;;;;;;;;;0.60;91.10;;;;;;5064615;28;20177;-79
2022/01/20 08:29:43;;;;;;;;;;;0.70;90.30;;;;;;5082459;28;20001;-79
2022/01/20 08:32:09;;;;;;;;;;;0.80;90.10;;;;;;5081730;28;20041;-79
2022/01/20 08:34:34;;;;;;;;;;;1.00;90.10;;;;;;5082135;28;19923;-78
2022/01/20 08:37:00;;;;;;;;;;;1.10;89.90;;;;;;5082096;28;19910;-78
2022/01/20 08:42:01;;;;;;;;;;;1.30;89.10;;;;;;5082089;28;19974;-79
2022/01/20 08:44:26;;;;;;;;;;;1.40;89.10;;;;;;5082174;28;20000;-79
2022/01/20 08:46:53;;;;;;;;;;;3.30;89.40;;;;;;5082015;28;20415;-79
2022/01/20 08:49:19;;;;;;;;;;;1.60;87.70;;;;;;5064172;28;19904;-79
2022/01/20 08:51:45;;;;;;;;;;;1.50;88.40;;;;;;5082537;28;19944;-79
2022/01/20 08:54:14;;;;;;;;;;;1.50;88.60;;;;;;5082200;28;20000;-79
2022/01/20 08:56:40;;;;;;;;;;;3.40;88.80;;;;;;5086667;28;19904;-79
2022/01/20 08:59:16;;;;;;;;;;;1.70;87.20;;;;;;5096373;28;19904;-78
2022/01/20 09:01:53;;;;;;;;;;;1.60;87.30;;;;;;5075510;28;19997;-78
2022/01/20 09:04:19;;;;;;;;;;;1.70;89.10;;;;;;5096318;28;19907;-80
2022/01/20 09:06:44;;;;;;;;;;;1.80;89.90;;;;;;5070204;28;20396;-79
2022/01/20 09:09:59;;;;;;;;;;;2.60;89.50;;;;;;5067594;28;19904;-79
2022/01/20 09:17:42;;;;;;;;;;;2.30;88.30;;;;;;4998683;28;19913;-78
2022/01/20 09:20:11;;;;;;;;;;;2.40;87.90;;;;;;4998241;28;19905;-79
2022/01/20 09:22:39;;;;;;;;;;;2.40;87.70;;;;;;4998267;28;19905;-81
2022/01/20 09:25:06;;;;;;;;;;;2.60;86.60;;;;;;4999219;28;19913;-79
2022/01/20 09:27:31;;;;;;;;;;;2.60;86.50;;;;;;4999119;28;19905;-79
2022/01/20 09:29:57;;;;;;;;;;;2.00;85.20;;;;;;4999209;28;20639;-79
2022/01/20 09:32:26;;;;;;;;;;;2.80;85.50;;;;;;4981948;28;19987;-79
2022/01/20 09:34:51;;;;;;;;;;;2.90;85.40;;;;;;4999019;28;19932;-79
2022/01/20 09:37:17;;;;;;;;;;;3.00;85.40;;;;;;4998153;28;20400;-78
2022/01/20 09:39:43;;;;;;;;;;;3.10;85.20;;;;;;4998091;28;19913;-78
2022/01/20 09:42:08;;;;;;;;;;;3.20;83.90;;;;;;4998118;28;19951;-78
2022/01/20 09:44:34;;;;;;;;;;;3.20;84.70;;;;;;4998224;28;20172;-79
2022/01/20 09:47:00;;;;;;;;;;;3.30;84.80;;;;;;4998127;28;20455;-78
2022/01/20 09:49:25;;;;;;;;;;;3.40;84.20;;;;;;5051904;28;19904;-79
2022/01/20 09:51:54;;;;;;;;;;;3.50;84.20;;;;;;5082034;28;19904;-79
2022/01/20 09:54:20;;;;;;;;;;;3.50;84.80;;;;;;5082141;28;19919;-79
2022/01/20 09:56:45;;;;;;;;;;;3.60;84.20;;;;;;5064056;28;19904;-78
2022/01/20 09:59:13;;;;;;;;;;;3.40;85.20;;;;;;5081984;28;19919;-78
2022/01/20 10:01:42;;;;;;;;;;;3.40;85.80;;;;;;5081663;28;19957;-79
2022/01/20 10:04:22;;;;;;;;;;;3.60;85.70;;;;;;5083368;28;19904;-79
2022/01/20 10:06:52;;;;;;;;;;;3.70;86.00;;;;;;5082856;28;19916;-78
2022/01/20 10:09:25;;;;;;;;;;;3.90;85.70;;;;;;5083085;28;19904;-78
2022/01/20 10:11:51;;;;;;;;;;;4.00;85.70;;;;;;5082830;28;19923;-79
2022/01/20 10:14:16;;;;;;;;;;;4.20;85.40;;;;;;5085876;28;19912;-79
2022/01/20 10:16:44;;;;;;;;;;;4.30;84.60;;;;;;5069143;28;20641;-78
2022/01/20 10:19:29;;;;;;;;;;;4.30;84.60;;;;;;5063896;28;19960;-79
2022/01/20 10:22:00;;;;;;;;;;;4.40;84.10;;;;;;5082004;28;19983;-79
2022/01/20 10:24:29;;;;;;;;;;;4.30;83.30;;;;;;5062941;28;19904;-79
2022/01/20 10:26:57;;;;;;;;;;;4.60;83.10;;;;;;5081418;28;19908;-79
2022/01/20 10:29:23;;;;;;;;;;;5.60;83.00;;;;;;5080718;28;19935;-78
2022/01/20 10:31:51;;;;;;;;;;;4.80;82.30;;;;;;5079836;28;20378;-79
2022/01/20 10:34:34;;;;;;;;;;;4.80;82.00;;;;;;5062185;28;19912;-79
2022/01/20 10:37:09;;;;;;;;;;;4.80;82.80;;;;;;5061859;28;20314;-78
2022/01/20 10:39:42;;;;;;;;;;;4.80;83.10;;;;;;5080454;28;19910;-79
2022/01/20 10:42:09;;;;;;;;;;;4.80;82.50;;;;;;5080095;28;19959;-79
2022/01/20 10:44:44;;;;;;;;;;;4.80;83.50;;;;;;5079980;28;20543;-79
2022/01/20 10:47:14;;;;;;;;;;;4.80;83.70;;;;;;5079489;28;20393;-77
2022/01/20 10:49:40;;;;;;;;;;;4.80;83.90;;;;;;5079349;28;19980;-78
2022/01/20 10:52:10;;;;;;;;;;;4.70;84.90;;;;;;5079080;28;19999;-78
2022/01/20 10:54:39;;;;;;;;;;;4.20;85.00;;;;;;5061559;28;20105;-79
2022/01/20 10:57:05;;;;;;;;;;;4.70;85.80;;;;;;5079261;28;19930;-78
2022/01/20 10:59:49;;;;;;;;;;;4.80;85.90;;;;;;5060637;28;19916;-79
2022/01/20 11:02:16;;;;;;;;;;;4.80;86.20;;;;;;5079333;28;19904;-80
2022/01/20 11:04:42;;;;;;;;;;;5.00;85.80;;;;;;5079324;28;19904;-78
2022/01/20 11:07:09;;;;;;;;;;;5.20;85.50;;;;;;5079198;28;20089;-79
2022/01/20 11:09:39;;;;;;;;;;;5.30;84.60;;;;;;5078876;28;19947;-79
2022/01/20 11:12:05;;;;;;;;;;;5.40;84.50;;;;;;5079154;28;19912;-79
2022/01/20 11:14:31;;;;;;;;;;;5.50;84.10;;;;;;5079304;28;20019;-79
2022/01/20 11:16:58;;;;;;;;;;;5.60;83.30;;;;;;5079097;28;20373;-79
2022/01/20 11:19:24;;;;;;;;;;;5.60;82.60;;;;;;5061152;28;19904;-79
2022/01/20 11:21:50;;;;;;;;;;;5.60;82.40;;;;;;5079622;28;20397;-79
2022/01/20 11:24:20;;;;;;;;;;;5.30;81.80;;;;;;5079914;28;20092;-79
2022/01/20 11:26:53;;;;;;;;;;;5.60;81.60;;;;;;5079870;28;20009;-79
2022/01/20 11:29:20;;;;;;;;;;;5.50;81.60;;;;;;5080053;28;20025;-78
2022/01/20 11:31:47;;;;;;;;;;;5.30;83.50;;;;;;5079842;28;19991;-78
2022/01/20 11:34:13;;;;;;;;;;;5.40;84.20;;;;;;5080257;28;19912;-79
2022/01/20 11:36:41;;;;;;;;;;;5.50;85.20;;;;;;5044928;28;19912;-79
2022/01/20 11:39:06;;;;;;;;;;;5.50;83.90;;;;;;5080386;28;19908;-78
2022/01/20 11:41:36;;;;;;;;;;;5.60;84.20;;;;;;5091054;28;20009;-79
2022/01/20 11:44:09;;;;;;;;;;;5.70;84.80;;;;;;5097695;28;19915;-79
2022/01/20 11:46:39;;;;;;;;;;;5.90;85.00;;;;;;5091878;28;19911;-80
2022/01/20 11:49:09;;;;;;;;;;;6.30;83.00;;;;;;5092364;28;19943;-79
2022/01/20 11:51:47;;;;;;;;;;;6.70;82.40;;;;;;5083396;28;20435;-79
2022/01/20 11:54:15;;;;;;;;;;;7.30;79.90;;;;;;5063178;28;19918;-79
2022/01/20 11:56:42;;;;;;;;;;;7.80;77.90;;;;;;5081802;28;20361;-79
2022/01/20 11:59:09;;;;;;;;;;;8.30;77.50;;;;;;5063825;28;20406;-79
2022/01/20 12:01:43;;;;;;;;;;;8.50;74.00;;;;;;5080708;28;19908;-79
2022/01/20 12:04:09;;;;;;;;;;;8.80;74.00;;;;;;5082882;28;19908;-79
2022/01/20 12:06:41;;;;;;;;;;;9.20;73.50;;;;;;5087016;28;19904;-79
2022/01/20 12:09:07;;;;;;;;;;;9.50;71.10;;;;;;5089156;28;20457;-79
2022/01/20 12:11:33;;;;;;;;;;;9.70;70.40;;;;;;5069770;28;19955;-79
2022/01/20 12:14:02;;;;;;;;;;;9.90;67.90;;;;;;5087604;28;20178;-79
2022/01/20 12:16:30;;;;;;;;;;;8.00;66.70;;;;;;5088155;28;19998;-79
2022/01/20 12:18:57;;;;;;;;;;;10.00;66.50;;;;;;5088137;28;19935;-79
2022/01/20 12:21:23;;;;;;;;;;;10.10;67.40;;;;;;5070890;28;20149;-80
2022/01/20 12:23:52;;;;;;;;;;;12.40;66.50;;;;;;5091474;28;19904;-79
2022/01/20 12:26:18;;;;;;;;;;;10.30;65.30;;;;;;5092686;28;19904;-82
2022/01/20 12:28:44;;;;;;;;;;;10.40;65.20;;;;;;5087501;28;19915;-79
2022/01/20 12:31:13;;;;;;;;;;;10.70;65.40;;;;;;5086600;28;20418;-79
2022/01/20 12:33:43;;;;;;;;;;;10.80;62.90;;;;;;5086535;28;19912;-80
2022/01/20 12:36:13;;;;;;;;;;;10.90;61.50;;;;;;5085189;28;20004;-80
2022/01/20 12:38:39;;;;;;;;;;;11.10;61.50;;;;;;5084238;28;20410;-79
2022/01/20 12:41:09;;;;;;;;;;;11.20;61.00;;;;;;5064575;28;19904;-79
2022/01/20 12:43:36;;;;;;;;;;;11.40;59.50;;;;;;5065263;28;20142;-79
2022/01/20 12:46:01;;;;;;;;;;;11.50;58.80;;;;;;5083481;28;19904;-79
2022/01/20 12:48:27;;;;;;;;;;;11.60;57.60;;;;;;5065531;28;20014;-79
2022/01/20 12:50:57;;;;;;;;;;;11.20;58.90;;;;;;5084333;28;19908;-79
2022/01/20 12:53:36;;;;;;;;;;;11.10;60.30;;;;;;5084129;28;19908;-79
2022/01/20 12:56:04;;;;;;;;;;;11.00;59.90;;;;;;5083599;28;20622;-79
2022/01/20 12:58:30;;;;;;;;;;;10.80;61.40;;;;;;5065705;28;19965;-79
2022/01/20 13:01:04;;;;;;;;;;;10.70;61.90;;;;;;5083601;28;19912;-79
2022/01/20 13:03:53;;;;;;;;;;;10.40;62.10;;;;;;5064808;28;20420;-79
2022/01/20 13:06:24;;;;;;;;;;;10.20;63.00;;;;;;5080428;28;19911;-79
2022/01/20 13:09:09;;;;;;;;;;;9.90;64.50;;;;;;5082586;28;20086;-80
2022/01/20 13:11:46;;;;;;;;;;;9.60;65.40;;;;;;5083099;28;20276;-79
2022/01/20 13:14:12;;;;;;;;;;;9.40;66.90;;;;;;5083941;28;19911;-79
2022/01/20 13:16:49;;;;;;;;;;;9.00;69.40;;;;;;5065954;28;20010;-80
2022/01/20 13:19:14;;;;;;;;;;;9.00;70.50;;;;;;5084026;28;19911;-80
2022/01/20 13:21:41;;;;;;;;;;;8.80;71.40;;;;;;5083902;28;19904;-79
2022/01/20 13:24:08;;;;;;;;;;;8.60;72.70;;;;;;5065184;28;19951;-79
2022/01/20 13:27:03;;;;;;;;;;;8.50;73.70;;;;;;5065522;28;19908;-79
2022/01/20 13:29:39;;;;;;;;;;;8.40;73.50;;;;;;5000555;28;19920;-79
2022/01/20 13:32:24;;;;;;;;;;;8.40;75.60;;;;;;5001747;28;20396;-80
2022/01/20 13:34:52;;;;;;;;;;;8.40;75.60;;;;;;4981217;28;19914;-80
2022/01/20 13:37:18;;;;;;;;;;;8.30;76.20;;;;;;4965867;28;19940;-79
2022/01/20 13:39:48;;;;;;;;;;;8.10;76.30;;;;;;4981561;28;19956;-79
2022/01/20 13:42:30;;;;;;;;;;;8.20;75.60;;;;;;4963966;28;20220;-79
2022/01/20 13:45:03;;;;;;;;;;;8.20;75.00;;;;;;4986621;28;19905;-79
2022/01/20 13:47:29;;;;;;;;;;;8.20;75.40;;;;;;4988414;28;20130;-80
2022/01/20 13:49:55;;;;;;;;;;;8.10;76.70;;;;;;4973242;28;20061;-80
2022/01/20 13:52:21;;;;;;;;;;;5.20;74.30;;;;;;4989807;28;19940;-79
2022/01/20 13:54:49;;;;;;;;;;;8.00;76.20;;;;;;4989825;28;19914;-80
2022/01/20 13:57:15;;;;;;;;;;;8.00;77.20;;;;;;4984339;28;19909;-79
2022/01/20 13:59:47;;;;;;;;;;;8.00;77.60;;;;;;4982601;28;20226;-79
2022/01/20 14:02:12;;;;;;;;;;;8.00;77.60;;;;;;4981178;28;19909;-79
2022/01/20 14:04:38;;;;;;;;;;;7.70;78.70;;;;;;4966295;28;19905;-79
2022/01/20 14:07:03;;;;;;;;;;;7.90;79.60;;;;;;5040526;28;19915;-80
2022/01/20 14:09:29;;;;;;;;;;;7.80;80.00;;;;;;5059398;28;19904;-79
2022/01/20 14:11:54;;;;;;;;;;;7.80;80.40;;;;;;5067622;28;19916;-79
2022/01/20 14:14:20;;;;;;;;;;;7.80;79.50;;;;;;5082238;28;19912;-79
2022/01/20 14:16:49;;;;;;;;;;;8.10;80.20;;;;;;5084438;28;20018;-79
2022/01/20 14:19:21;;;;;;;;;;;7.70;79.50;;;;;;5067150;28;19943;-80
2022/01/20 14:21:50;;;;;;;;;;;7.70;79.40;;;;;;5085513;28;19993;-79
2022/01/20 14:24:16;;;;;;;;;;;7.80;80.10;;;;;;5099194;28;19971;-79
2022/01/20 14:26:44;;;;;;;;;;;7.70;79.20;;;;;;5099684;28;19915;-79
2022/01/20 14:29:13;;;;;;;;;;;7.70;79.20;;;;;;5101315;28;19912;-80
2022/01/20 14:31:38;;;;;;;;;;;7.70;79.00;;;;;;5075664;28;19904;-79
2022/01/20 14:34:09;;;;;;;;;;;7.70;79.40;;;;;;5090467;28;20633;-79
2022/01/20 14:36:34;;;;;;;;;;;7.50;79.80;;;;;;5084027;28;19907;-79
2022/01/20 14:39:03;;;;;;;;;;;7.70;80.00;;;;;;5081858;28;20440;-79
2022/01/20 14:41:29;;;;;;;;;;;7.60;80.30;;;;;;5081732;28;19904;-79
2022/01/20 14:43:55;;;;;;;;;;;7.60;81.10;;;;;;5062819;28;20116;-79
2022/01/20 14:46:20;;;;;;;;;;;7.50;81.80;;;;;;5080207;28;19904;-79
2022/01/20 14:48:46;;;;;;;;;;;7.40;82.40;;;;;;5080263;28;19904;-79
2022/01/20 14:51:11;;;;;;;;;;;7.20;82.80;;;;;;5080306;28;19914;-79
2022/01/20 14:53:37;;;;;;;;;;;7.20;83.60;;;;;;5061257;28;19999;-80
2022/01/20 14:56:06;;;;;;;;;;;7.10;83.70;;;;;;5080171;28;20011;-79
2022/01/20 14:58:32;;;;;;;;;;;7.10;84.20;;;;;;5061574;28;19914;-79
2022/01/20 15:00:57;;;;;;;;;;;6.90;84.50;;;;;;5080388;28;19908;-79
2022/01/20 15:03:24;;;;;;;;;;;6.80;84.80;;;;;;5080147;28;19916;-79
2022/01/20 15:05:50;;;;;;;;;;;6.80;85.70;;;;;;5079722;28;19911;-79
2022/01/20 15:08:16;;;;;;;;;;;6.70;86.20;;;;;;5079808;28;19903;-79
2022/01/20 15:10:41;;;;;;;;;;;6.60;86.60;;;;;;5079649;28;20496;-79
2022/01/20 15:13:07;;;;;;;;;;;6.50;86.80;;;;;;5079596;28;19981;-79
2022/01/20 15:15:33;;;;;;;;;;;6.40;86.90;;;;;;5079853;28;20013;-79
2022/01/20 15:17:59;;;;;;;;;;;6.40;86.90;;;;;;5080374;28;20184;-79
2022/01/20 15:20:24;;;;;;;;;;;6.30;87.50;;;;;;5080144;28;19915;-80
2022/01/20 15:22:50;;;;;;;;;;;6.30;87.50;;;;;;5079987;28;19904;-79
2022/01/20 15:25:15;;;;;;;;;;;6.20;87.80;;;;;;5061616;28;19908;-80
2022/01/20 15:27:41;;;;;;;;;;;6.20;88.40;;;;;;5079747;28;20420;-79
2022/01/20 15:30:07;;;;;;;;;;;6.10;89.90;;;;;;5080940;28;19920;-79
2022/01/20 15:32:32;;;;;;;;;;;6.10;90.00;;;;;;5079962;28;20499;-79
2022/01/20 15:34:58;;;;;;;;;;;6.10;90.10;;;;;;5080119;28;19912;-79
2022/01/20 15:37:24;;;;;;;;;;;6.00;90.50;;;;;;5079324;28;20259;-79
2022/01/20 15:39:49;;;;;;;;;;;5.90;90.80;;;;;;5079325;28;20308;-80
2022/01/20 15:42:15;;;;;;;;;;;5.90;91.40;;;;;;5064070;28;19998;-79
2022/01/20 15:44:40;;;;;;;;;;;5.80;91.90;;;;;;5083533;28;19907;-79
2022/01/20 15:47:06;;;;;;;;;;;6.20;92.10;;;;;;5063982;28;19905;-79
2022/01/20 15:49:32;;;;;;;;;;;5.60;91.80;;;;;;5083512;28;20321;-79
2022/01/20 15:51:57;;;;;;;;;;;5.60;92.00;;;;;;5083506;28;20385;-79
2022/01/20 15:54:23;;;;;;;;;;;5.60;92.90;;;;;;5083054;28;20480;-80
2022/01/20 15:56:48;;;;;;;;;;;5.40;92.80;;;;;;5083547;28;19987;-79
2022/01/20 15:59:14;;;;;;;;;;;5.50;92.80;;;;;;5082919;28;19912;-80
2022/01/20 16:01:42;;;;;;;;;;;5.40;92.60;;;;;;5083682;28;19957;-79
2022/01/20 16:04:14;;;;;;;;;;;5.30;92.60;;;;;;5083137;28;19908;-79